sensor_id;sensor_type;location;lat;lon;timestamp;temperature;humidity
68274;SHT30;55104;47.356;19.448;2023-03-07T00:03:02;2.54;89.98
68274;SHT30;55104;47.356;19.448;2023-03-07T00:06:06;2.53;89.88
68274;SHT30;55104;47.356;19.448;2023-03-07T00:09:09;2.53;89.99
68274;SHT30;55104;47.356;19.448;2023-03-07T00:12:11;2.49;89.79
68274;SHT30;55104;47.356;19.448;2023-03-07T00:15:13;2.50;89.95
68274;SHT30;55104;47.356;19.448;2023-03-07T00:18:15;2.47;89.55
68274;SHT30;55104;47.356;19.448;2023-03-07T00:21:20;2.45;89.91
68274;SHT30;55104;47.356;19.448;2023-03-07T00:24:22;2.43;89.88
68274;SHT30;55104;47.356;19.448;2023-03-07T00:27:24;2.40;90.02
68274;SHT30;55104;47.356;19.448;2023-03-07T00:30:26;2.35;90.47
68274;SHT30;55104;47.356;19.448;2023-03-07T00:33:29;2.32;90.53
68274;SHT30;55104;47.356;19.448;2023-03-07T00:36:31;2.28;90.43
68274;SHT30;55104;47.356;19.448;2023-03-07T00:39:33;2.26;90.76
68274;SHT30;55104;47.356;19.448;2023-03-07T00:42:34;2.28;90.50
68274;SHT30;55104;47.356;19.448;2023-03-07T00:45:36;2.28;90.48
68274;SHT30;55104;47.356;19.448;2023-03-07T00:48:39;2.24;90.66
68274;SHT30;55104;47.356;19.448;2023-03-07T00:51:41;2.26;90.58
68274;SHT30;55104;47.356;19.448;2023-03-07T00:54:43;2.22;90.44
68274;SHT30;55104;47.356;19.448;2023-03-07T00:57:46;2.22;90.37
68274;SHT30;55104;47.356;19.448;2023-03-07T01:00:48;2.21;90.34
68274;SHT30;55104;47.356;19.448;2023-03-07T01:03:51;2.21;90.32
68274;SHT30;55104;47.356;19.448;2023-03-07T01:06:57;2.21;90.23
68274;SHT30;55104;47.356;19.448;2023-03-07T01:09:59;2.18;90.29
68274;SHT30;55104;47.356;19.448;2023-03-07T01:13:01;2.18;90.54
68274;SHT30;55104;47.356;19.448;2023-03-07T01:19:10;2.04;90.96
68274;SHT30;55104;47.356;19.448;2023-03-07T01:22:15;1.99;90.71
68274;SHT30;55104;47.356;19.448;2023-03-07T01:25:17;1.97;90.31
68274;SHT30;55104;47.356;19.448;2023-03-07T01:28:19;1.94;90.38
68274;SHT30;55104;47.356;19.448;2023-03-07T01:31:21;1.91;90.60
68274;SHT30;55104;47.356;19.448;2023-03-07T01:34:23;1.95;90.79
68274;SHT30;55104;47.356;19.448;2023-03-07T01:37:26;1.90;90.71
68274;SHT30;55104;47.356;19.448;2023-03-07T01:40:28;1.82;90.81
68274;SHT30;55104;47.356;19.448;2023-03-07T01:43:34;1.80;90.64
68274;SHT30;55104;47.356;19.448;2023-03-07T01:46:47;1.70;90.69
68274;SHT30;55104;47.356;19.448;2023-03-07T01:49:50;1.73;90.84
68274;SHT30;55104;47.356;19.448;2023-03-07T01:52:56;1.70;90.83
68274;SHT30;55104;47.356;19.448;2023-03-07T01:56:00;1.77;90.65
68274;SHT30;55104;47.356;19.448;2023-03-07T01:59:03;1.71;90.42
68274;SHT30;55104;47.356;19.448;2023-03-07T02:02:09;1.73;90.45
68274;SHT30;55104;47.356;19.448;2023-03-07T02:05:19;1.73;90.43
68274;SHT30;55104;47.356;19.448;2023-03-07T02:08:25;1.73;90.71
68274;SHT30;55104;47.356;19.448;2023-03-07T02:11:28;1.74;90.97
68274;SHT30;55104;47.356;19.448;2023-03-07T02:14:31;1.75;91.04
68274;SHT30;55104;47.356;19.448;2023-03-07T02:17:34;1.77;90.79
68274;SHT30;55104;47.356;19.448;2023-03-07T02:26:52;1.78;91.38
68274;SHT30;55104;47.356;19.448;2023-03-07T02:29:55;1.85;91.27
68274;SHT30;55104;47.356;19.448;2023-03-07T02:32:58;1.95;90.89
68274;SHT30;55104;47.356;19.448;2023-03-07T02:36:13;1.90;90.80
68274;SHT30;55104;47.356;19.448;2023-03-07T02:39:24;1.88;90.77
68274;SHT30;55104;47.356;19.448;2023-03-07T02:42:29;1.82;90.62
68274;SHT30;55104;47.356;19.448;2023-03-07T02:45:39;1.82;90.58
68274;SHT30;55104;47.356;19.448;2023-03-07T02:48:41;1.78;90.70
68274;SHT30;55104;47.356;19.448;2023-03-07T02:51:43;1.82;90.65
68274;SHT30;55104;47.356;19.448;2023-03-07T02:54:46;1.80;90.65
68274;SHT30;55104;47.356;19.448;2023-03-07T02:57:49;1.82;90.60
68274;SHT30;55104;47.356;19.448;2023-03-07T03:00:52;1.80;90.69
68274;SHT30;55104;47.356;19.448;2023-03-07T03:03:54;1.80;90.57
68274;SHT30;55104;47.356;19.448;2023-03-07T03:06:56;1.80;90.67
68274;SHT30;55104;47.356;19.448;2023-03-07T03:09:58;1.78;90.69
68274;SHT30;55104;47.356;19.448;2023-03-07T03:13:01;1.82;91.06
68274;SHT30;55104;47.356;19.448;2023-03-07T03:16:03;1.81;91.18
68274;SHT30;55104;47.356;19.448;2023-03-07T03:19:07;1.82;91.72
68274;SHT30;55104;47.356;19.448;2023-03-07T03:22:09;1.80;91.67
68274;SHT30;55104;47.356;19.448;2023-03-07T03:25:14;1.84;91.29
68274;SHT30;55104;47.356;19.448;2023-03-07T03:28:18;1.84;91.17
68274;SHT30;55104;47.356;19.448;2023-03-07T03:31:21;1.81;91.27
68274;SHT30;55104;47.356;19.448;2023-03-07T03:34:23;1.80;91.10
68274;SHT30;55104;47.356;19.448;2023-03-07T03:37:25;1.78;91.04
68274;SHT30;55104;47.356;19.448;2023-03-07T03:40:28;1.80;91.05
68274;SHT30;55104;47.356;19.448;2023-03-07T03:43:33;1.80;91.36
68274;SHT30;55104;47.356;19.448;2023-03-07T03:46:36;1.77;91.43
68274;SHT30;55104;47.356;19.448;2023-03-07T03:49:39;1.70;91.45
68274;SHT30;55104;47.356;19.448;2023-03-07T03:52:41;1.71;91.58
68274;SHT30;55104;47.356;19.448;2023-03-07T03:55:46;1.71;91.58
68274;SHT30;55104;47.356;19.448;2023-03-07T03:58:50;1.73;91.52
68274;SHT30;55104;47.356;19.448;2023-03-07T04:01:53;1.71;91.55
68274;SHT30;55104;47.356;19.448;2023-03-07T04:04:56;1.73;91.29
68274;SHT30;55104;47.356;19.448;2023-03-07T04:07:58;1.68;91.27
68274;SHT30;55104;47.356;19.448;2023-03-07T04:11:00;1.63;91.15
68274;SHT30;55104;47.356;19.448;2023-03-07T04:14:02;1.63;91.18
68274;SHT30;55104;47.356;19.448;2023-03-07T04:17:04;1.63;91.14
68274;SHT30;55104;47.356;19.448;2023-03-07T04:20:07;1.60;91.26
68274;SHT30;55104;47.356;19.448;2023-03-07T04:23:16;1.57;90.93
68274;SHT30;55104;47.356;19.448;2023-03-07T04:26:18;1.59;91.06
68274;SHT30;55104;47.356;19.448;2023-03-07T04:29:20;1.56;91.02
68274;SHT30;55104;47.356;19.448;2023-03-07T04:32:28;1.57;90.90
68274;SHT30;55104;47.356;19.448;2023-03-07T04:35:30;1.59;90.95
68274;SHT30;55104;47.356;19.448;2023-03-07T04:38:32;1.53;90.99
68274;SHT30;55104;47.356;19.448;2023-03-07T04:41:36;1.52;91.10
68274;SHT30;55104;47.356;19.448;2023-03-07T04:44:49;1.49;91.58
68274;SHT30;55104;47.356;19.448;2023-03-07T04:47:52;1.46;91.84
68274;SHT30;55104;47.356;19.448;2023-03-07T04:50:54;1.49;91.63
68274;SHT30;55104;47.356;19.448;2023-03-07T04:53:56;1.49;91.79
68274;SHT30;55104;47.356;19.448;2023-03-07T04:56:59;1.45;92.04
68274;SHT30;55104;47.356;19.448;2023-03-07T05:00:03;1.43;91.91
68274;SHT30;55104;47.356;19.448;2023-03-07T05:03:07;1.46;91.82
68274;SHT30;55104;47.356;19.448;2023-03-07T05:06:12;1.52;91.78
68274;SHT30;55104;47.356;19.448;2023-03-07T05:09:16;1.50;91.65
68274;SHT30;55104;47.356;19.448;2023-03-07T05:12:19;1.50;91.54
68274;SHT30;55104;47.356;19.448;2023-03-07T05:15:21;1.46;91.49
68274;SHT30;55104;47.356;19.448;2023-03-07T05:18:24;1.47;91.45
68274;SHT30;55104;47.356;19.448;2023-03-07T05:21:28;1.46;91.61
68274;SHT30;55104;47.356;19.448;2023-03-07T05:24:30;1.46;91.49
68274;SHT30;55104;47.356;19.448;2023-03-07T05:27:33;1.45;91.66
68274;SHT30;55104;47.356;19.448;2023-03-07T05:30:35;1.43;91.71
68274;SHT30;55104;47.356;19.448;2023-03-07T05:33:37;1.49;91.71
68274;SHT30;55104;47.356;19.448;2023-03-07T05:36:39;1.52;91.56
68274;SHT30;55104;47.356;19.448;2023-03-07T05:39:42;1.56;91.42
68274;SHT30;55104;47.356;19.448;2023-03-07T05:42:44;1.59;91.45
68274;SHT30;55104;47.356;19.448;2023-03-07T05:45:46;1.59;91.52
68274;SHT30;55104;47.356;19.448;2023-03-07T05:48:48;1.66;91.46
68274;SHT30;55104;47.356;19.448;2023-03-07T05:51:50;1.73;91.36
68274;SHT30;55104;47.356;19.448;2023-03-07T05:54:54;1.75;91.35
68274;SHT30;55104;47.356;19.448;2023-03-07T05:57:56;1.84;91.32
68274;SHT30;55104;47.356;19.448;2023-03-07T06:01:01;1.84;91.33
68274;SHT30;55104;47.356;19.448;2023-03-07T06:04:05;1.85;91.24
68274;SHT30;55104;47.356;19.448;2023-03-07T06:07:07;1.90;91.13
68274;SHT30;55104;47.356;19.448;2023-03-07T06:10:10;1.98;91.06
68274;SHT30;55104;47.356;19.448;2023-03-07T06:13:16;2.07;91.00
68274;SHT30;55104;47.356;19.448;2023-03-07T06:16:19;2.12;90.98
68274;SHT30;55104;47.356;19.448;2023-03-07T06:19:21;2.22;90.90
68274;SHT30;55104;47.356;19.448;2023-03-07T06:22:24;2.29;90.71
68274;SHT30;55104;47.356;19.448;2023-03-07T06:25:26;2.36;90.65
68274;SHT30;55104;47.356;19.448;2023-03-07T06:28:29;2.45;90.50
68274;SHT30;55104;47.356;19.448;2023-03-07T06:31:34;2.54;90.37
68274;SHT30;55104;47.356;19.448;2023-03-07T06:34:36;2.64;90.26
68274;SHT30;55104;47.356;19.448;2023-03-07T06:37:39;2.72;90.22
68274;SHT30;55104;47.356;19.448;2023-03-07T06:40:42;2.77;89.99
68274;SHT30;55104;47.356;19.448;2023-03-07T06:43:50;2.77;89.85
68274;SHT30;55104;47.356;19.448;2023-03-07T06:46:52;2.87;89.88
68274;SHT30;55104;47.356;19.448;2023-03-07T06:49:55;2.95;89.84
68274;SHT30;55104;47.356;19.448;2023-03-07T06:52:58;3.05;89.71
68274;SHT30;55104;47.356;19.448;2023-03-07T06:56:00;3.18;89.79
68274;SHT30;55104;47.356;19.448;2023-03-07T06:59:02;3.32;89.83
68274;SHT30;55104;47.356;19.448;2023-03-07T07:02:09;3.49;89.33
68274;SHT30;55104;47.356;19.448;2023-03-07T07:05:13;3.62;89.58
68274;SHT30;55104;47.356;19.448;2023-03-07T07:08:15;3.73;88.99
68274;SHT30;55104;47.356;19.448;2023-03-07T07:11:18;3.90;88.98
68274;SHT30;55104;47.356;19.448;2023-03-07T07:14:20;3.98;88.42
68274;SHT30;55104;47.356;19.448;2023-03-07T07:17:23;4.01;88.48
68274;SHT30;55104;47.356;19.448;2023-03-07T07:20:25;4.19;87.97
68274;SHT30;55104;47.356;19.448;2023-03-07T07:23:27;4.22;87.88
68274;SHT30;55104;47.356;19.448;2023-03-07T07:26:30;4.42;87.38
68274;SHT30;55104;47.356;19.448;2023-03-07T07:29:33;4.52;87.00
68274;SHT30;55104;47.356;19.448;2023-03-07T07:32:35;4.73;86.45
68274;SHT30;55104;47.356;19.448;2023-03-07T07:35:42;4.81;85.32
68274;SHT30;55104;47.356;19.448;2023-03-07T07:38:44;4.87;85.46
68274;SHT30;55104;47.356;19.448;2023-03-07T07:41:46;5.01;85.46
68274;SHT30;55104;47.356;19.448;2023-03-07T07:44:50;5.25;84.34
68274;SHT30;55104;47.356;19.448;2023-03-07T07:47:54;5.39;83.98
68274;SHT30;55104;47.356;19.448;2023-03-07T07:51:03;5.61;83.29
68274;SHT30;55104;47.356;19.448;2023-03-07T07:54:09;5.74;83.00
68274;SHT30;55104;47.356;19.448;2023-03-07T07:57:11;5.84;82.41
68274;SHT30;55104;47.356;19.448;2023-03-07T08:00:14;6.04;80.90
68274;SHT30;55104;47.356;19.448;2023-03-07T08:03:21;5.90;81.41
68274;SHT30;55104;47.356;19.448;2023-03-07T08:06:25;5.88;80.87
68274;SHT30;55104;47.356;19.448;2023-03-07T08:09:28;5.97;81.27
68274;SHT30;55104;47.356;19.448;2023-03-07T08:12:30;5.93;81.66
68274;SHT30;55104;47.356;19.448;2023-03-07T08:15:32;6.01;80.98
68274;SHT30;55104;47.356;19.448;2023-03-07T08:18:34;6.21;79.47
68274;SHT30;55104;47.356;19.448;2023-03-07T08:21:37;6.22;79.06
68274;SHT30;55104;47.356;19.448;2023-03-07T08:24:39;6.37;78.64
68274;SHT30;55104;47.356;19.448;2023-03-07T08:27:42;6.35;77.83
68274;SHT30;55104;47.356;19.448;2023-03-07T08:30:44;6.56;78.72
68274;SHT30;55104;47.356;19.448;2023-03-07T08:33:46;6.67;76.77
68274;SHT30;55104;47.356;19.448;2023-03-07T08:36:48;6.84;75.76
68274;SHT30;55104;47.356;19.448;2023-03-07T08:39:50;7.01;75.65
68274;SHT30;55104;47.356;19.448;2023-03-07T08:42:52;7.16;75.49
68274;SHT30;55104;47.356;19.448;2023-03-07T08:45:56;7.29;75.62
68274;SHT30;55104;47.356;19.448;2023-03-07T08:48:59;7.36;75.12
68274;SHT30;55104;47.356;19.448;2023-03-07T08:52:01;7.46;74.61
68274;SHT30;55104;47.356;19.448;2023-03-07T08:55:03;7.50;74.09
68274;SHT30;55104;47.356;19.448;2023-03-07T08:58:06;7.42;71.91
68274;SHT30;55104;47.356;19.448;2023-03-07T09:01:08;7.39;71.63
68274;SHT30;55104;47.356;19.448;2023-03-07T09:04:11;7.43;71.33
68274;SHT30;55104;47.356;19.448;2023-03-07T09:07:12;7.52;69.86
68274;SHT30;55104;47.356;19.448;2023-03-07T09:10:16;7.67;68.65
68274;SHT30;55104;47.356;19.448;2023-03-07T09:13:20;7.59;70.38
68274;SHT30;55104;47.356;19.448;2023-03-07T09:16:22;7.70;66.58
68274;SHT30;55104;47.356;19.448;2023-03-07T09:19:25;7.66;67.21
68274;SHT30;55104;47.356;19.448;2023-03-07T09:22:27;7.75;66.93
68274;SHT30;55104;47.356;19.448;2023-03-07T09:25:29;7.80;65.75
68274;SHT30;55104;47.356;19.448;2023-03-07T09:28:32;7.87;65.92
68274;SHT30;55104;47.356;19.448;2023-03-07T09:31:34;8.03;65.38
68274;SHT30;55104;47.356;19.448;2023-03-07T09:34:36;7.95;62.50
68274;SHT30;55104;47.356;19.448;2023-03-07T09:37:38;8.12;63.43
68274;SHT30;55104;47.356;19.448;2023-03-07T09:40:44;8.28;62.51
68274;SHT30;55104;47.356;19.448;2023-03-07T09:43:50;8.16;61.97
68274;SHT30;55104;47.356;19.448;2023-03-07T09:47:36;8.30;60.15
68274;SHT30;55104;47.356;19.448;2023-03-07T09:50:56;8.43;61.62
68274;SHT30;55104;47.356;19.448;2023-03-07T09:54:15;8.35;59.53
68274;SHT30;55104;47.356;19.448;2023-03-07T09:57:29;8.57;59.97
68274;SHT30;55104;47.356;19.448;2023-03-07T10:00:35;8.77;58.52
68274;SHT30;55104;47.356;19.448;2023-03-07T10:03:50;8.98;58.78
68274;SHT30;55104;47.356;19.448;2023-03-07T10:06:57;8.66;58.16
68274;SHT30;55104;47.356;19.448;2023-03-07T10:10:16;8.97;57.60
68274;SHT30;55104;47.356;19.448;2023-03-07T10:13:24;9.02;57.20
68274;SHT30;55104;47.356;19.448;2023-03-07T10:19:50;9.32;55.16
68274;SHT30;55104;47.356;19.448;2023-03-07T10:23:18;9.44;55.13
68274;SHT30;55104;47.356;19.448;2023-03-07T10:26:33;9.11;54.26
68274;SHT30;55104;47.356;19.448;2023-03-07T10:29:46;9.43;54.23
68274;SHT30;55104;47.356;19.448;2023-03-07T10:32:54;9.38;53.41
68274;SHT30;55104;47.356;19.448;2023-03-07T10:36:09;9.46;55.00
68274;SHT30;55104;47.356;19.448;2023-03-07T10:39:24;9.57;54.58
68274;SHT30;55104;47.356;19.448;2023-03-07T10:42:33;9.54;51.51
68274;SHT30;55104;47.356;19.448;2023-03-07T10:45:36;9.58;53.53
68274;SHT30;55104;47.356;19.448;2023-03-07T10:48:44;9.67;51.95
68274;SHT30;55104;47.356;19.448;2023-03-07T10:52:05;9.51;51.65
68274;SHT30;55104;47.356;19.448;2023-03-07T10:58:31;9.47;53.47
68274;SHT30;55104;47.356;19.448;2023-03-07T11:01:35;9.54;53.56
68274;SHT30;55104;47.356;19.448;2023-03-07T11:04:45;9.49;53.47
68274;SHT30;55104;47.356;19.448;2023-03-07T11:07:47;9.64;55.05
68274;SHT30;55104;47.356;19.448;2023-03-07T11:10:49;9.70;52.63
68274;SHT30;55104;47.356;19.448;2023-03-07T11:14:07;9.85;53.16
68274;SHT30;55104;47.356;19.448;2023-03-07T11:17:24;9.85;52.71
68274;SHT30;55104;47.356;19.448;2023-03-07T11:20:30;9.93;54.09
68274;SHT30;55104;47.356;19.448;2023-03-07T11:23:57;9.56;51.09
68274;SHT30;55104;47.356;19.448;2023-03-07T11:26:59;9.54;50.46
68274;SHT30;55104;47.356;19.448;2023-03-07T11:30:22;9.70;50.65
68274;SHT30;55104;47.356;19.448;2023-03-07T11:33:47;9.60;49.76
68274;SHT30;55104;47.356;19.448;2023-03-07T11:40:31;9.38;63.62
68274;SHT30;55104;47.356;19.448;2023-03-07T11:49:44;9.51;64.23
68274;SHT30;55104;47.356;19.448;2023-03-07T12:02:43;8.84;65.13
68274;SHT30;55104;47.356;19.448;2023-03-07T12:09:26;8.98;62.77
68274;SHT30;55104;47.356;19.448;2023-03-07T12:25:41;8.68;64.75
68274;SHT30;55104;47.356;19.448;2023-03-07T12:31:54;8.80;63.77
68274;SHT30;55104;47.356;19.448;2023-03-07T12:35:40;8.75;63.80
68274;SHT30;55104;47.356;19.448;2023-03-07T12:38:33;8.78;64.18
68274;SHT30;55104;47.356;19.448;2023-03-07T12:45:02;8.74;65.83
68274;SHT30;55104;47.356;19.448;2023-03-07T12:51:47;8.70;63.33
68274;SHT30;55104;47.356;19.448;2023-03-07T12:54:57;8.59;64.26
68274;SHT30;55104;47.356;19.448;2023-03-07T13:01:36;8.87;63.24
68274;SHT30;55104;47.356;19.448;2023-03-07T13:04:41;9.09;61.93
68274;SHT30;55104;47.356;19.448;2023-03-07T13:07:47;9.07;61.10
68274;SHT30;55104;47.356;19.448;2023-03-07T13:10:50;9.05;61.06
68274;SHT30;55104;47.356;19.448;2023-03-07T13:13:54;8.75;61.10
68274;SHT30;55104;47.356;19.448;2023-03-07T13:16:56;8.60;61.74
68274;SHT30;55104;47.356;19.448;2023-03-07T13:23:34;8.83;62.53
68274;SHT30;55104;47.356;19.448;2023-03-07T13:26:37;8.88;60.74
68274;SHT30;55104;47.356;19.448;2023-03-07T13:33:25;8.83;61.36
68274;SHT30;55104;47.356;19.448;2023-03-07T13:36:36;8.74;61.47
68274;SHT30;55104;47.356;19.448;2023-03-07T13:39:58;8.60;61.58
68274;SHT30;55104;47.356;19.448;2023-03-07T13:43:02;8.49;62.16
68274;SHT30;55104;47.356;19.448;2023-03-07T13:46:29;8.39;63.04
68274;SHT30;55104;47.356;19.448;2023-03-07T13:49:40;8.29;63.75
68274;SHT30;55104;47.356;19.448;2023-03-07T13:52:43;8.16;64.69
68274;SHT30;55104;47.356;19.448;2023-03-07T13:55:49;8.15;64.77
68274;SHT30;55104;47.356;19.448;2023-03-07T13:58:58;7.95;65.17
68274;SHT30;55104;47.356;19.448;2023-03-07T14:02:01;7.90;65.36
68274;SHT30;55104;47.356;19.448;2023-03-07T14:05:05;7.75;65.77
68274;SHT30;55104;47.356;19.448;2023-03-07T14:08:10;7.77;65.97
68274;SHT30;55104;47.356;19.448;2023-03-07T14:11:24;7.73;65.91
68274;SHT30;55104;47.356;19.448;2023-03-07T14:21:25;7.62;67.51
68274;SHT30;55104;47.356;19.448;2023-03-07T14:25:33;7.66;67.52
68274;SHT30;55104;47.356;19.448;2023-03-07T14:31:26;7.60;68.83
68274;SHT30;55104;47.356;19.448;2023-03-07T14:34:31;7.53;69.37
68274;SHT30;55104;47.356;19.448;2023-03-07T14:37:34;7.57;69.14
68274;SHT30;55104;47.356;19.448;2023-03-07T14:50:42;7.45;70.34
68274;SHT30;55104;47.356;19.448;2023-03-07T14:53:46;7.42;70.99
68274;SHT30;55104;47.356;19.448;2023-03-07T14:56:49;7.47;70.12
68274;SHT30;55104;47.356;19.448;2023-03-07T15:03:12;7.42;70.53
68274;SHT30;55104;47.356;19.448;2023-03-07T15:06:18;7.50;69.80
68274;SHT30;55104;47.356;19.448;2023-03-07T15:09:20;7.53;68.92
68274;SHT30;55104;47.356;19.448;2023-03-07T15:12:24;7.42;69.24
68274;SHT30;55104;47.356;19.448;2023-03-07T15:18:33;7.35;68.52
68274;SHT30;55104;47.356;19.448;2023-03-07T15:21:42;7.20;68.57
68274;SHT30;55104;47.356;19.448;2023-03-07T15:24:47;7.18;69.09
68274;SHT30;55104;47.356;19.448;2023-03-07T15:28:01;7.08;69.41
68274;SHT30;55104;47.356;19.448;2023-03-07T15:31:06;7.04;69.69
68274;SHT30;55104;47.356;19.448;2023-03-07T15:34:16;7.04;70.03
68274;SHT30;55104;47.356;19.448;2023-03-07T15:37:25;6.98;70.42
68274;SHT30;55104;47.356;19.448;2023-03-07T15:40:30;7.01;70.41
68274;SHT30;55104;47.356;19.448;2023-03-07T15:43:35;6.99;70.70
68274;SHT30;55104;47.356;19.448;2023-03-07T15:46:46;6.94;70.92
68274;SHT30;55104;47.356;19.448;2023-03-07T15:50:03;6.88;71.35
68274;SHT30;55104;47.356;19.448;2023-03-07T15:53:12;6.88;71.60
68274;SHT30;55104;47.356;19.448;2023-03-07T15:56:21;6.88;71.43
68274;SHT30;55104;47.356;19.448;2023-03-07T15:59:28;7.01;71.07
68274;SHT30;55104;47.356;19.448;2023-03-07T16:05:36;6.84;71.34
68274;SHT30;55104;47.356;19.448;2023-03-07T16:08:38;6.87;71.37
68274;SHT30;55104;47.356;19.448;2023-03-07T16:11:41;6.81;71.48
68274;SHT30;55104;47.356;19.448;2023-03-07T16:14:46;6.85;71.09
68274;SHT30;55104;47.356;19.448;2023-03-07T16:17:50;6.83;71.25
68274;SHT30;55104;47.356;19.448;2023-03-07T16:20:56;6.77;71.54
68274;SHT30;55104;47.356;19.448;2023-03-07T16:23:58;6.77;71.16
68274;SHT30;55104;47.356;19.448;2023-03-07T16:27:00;6.77;71.17
68274;SHT30;55104;47.356;19.448;2023-03-07T16:30:12;6.69;71.40
68274;SHT30;55104;47.356;19.448;2023-03-07T16:33:16;6.64;71.27
68274;SHT30;55104;47.356;19.448;2023-03-07T16:36:19;6.49;71.60
68274;SHT30;55104;47.356;19.448;2023-03-07T16:39:21;6.39;72.31
68274;SHT30;55104;47.356;19.448;2023-03-07T16:42:23;6.33;72.65
68274;SHT30;55104;47.356;19.448;2023-03-07T16:48:28;6.33;72.51
68274;SHT30;55104;47.356;19.448;2023-03-07T16:51:30;6.35;72.85
68274;SHT30;55104;47.356;19.448;2023-03-07T16:54:33;6.33;73.00
68274;SHT30;55104;47.356;19.448;2023-03-07T16:57:35;6.30;72.97
68274;SHT30;55104;47.356;19.448;2023-03-07T17:00:38;6.36;72.86
68274;SHT30;55104;47.356;19.448;2023-03-07T17:03:40;6.32;73.12
68274;SHT30;55104;47.356;19.448;2023-03-07T17:06:43;6.26;73.39
68274;SHT30;55104;47.356;19.448;2023-03-07T17:09:46;6.18;73.38
68274;SHT30;55104;47.356;19.448;2023-03-07T17:12:49;6.12;73.62
68274;SHT30;55104;47.356;19.448;2023-03-07T17:15:51;6.02;74.13
68274;SHT30;55104;47.356;19.448;2023-03-07T17:18:53;6.04;74.24
68274;SHT30;55104;47.356;19.448;2023-03-07T17:21:57;5.97;74.80
68274;SHT30;55104;47.356;19.448;2023-03-07T17:25:00;5.95;74.51
68274;SHT30;55104;47.356;19.448;2023-03-07T17:28:06;5.90;74.23
68274;SHT30;55104;47.356;19.448;2023-03-07T17:31:08;5.91;74.59
68274;SHT30;55104;47.356;19.448;2023-03-07T17:34:23;5.90;74.68
68274;SHT30;55104;47.356;19.448;2023-03-07T17:37:25;5.90;74.97
68274;SHT30;55104;47.356;19.448;2023-03-07T17:40:29;5.91;74.98
68274;SHT30;55104;47.356;19.448;2023-03-07T17:43:31;5.90;75.36
68274;SHT30;55104;47.356;19.448;2023-03-07T17:46:34;5.90;75.10
68274;SHT30;55104;47.356;19.448;2023-03-07T17:49:37;5.90;75.07
68274;SHT30;55104;47.356;19.448;2023-03-07T17:52:39;5.87;75.05
68274;SHT30;55104;47.356;19.448;2023-03-07T17:55:41;5.84;74.80
68274;SHT30;55104;47.356;19.448;2023-03-07T17:58:44;5.80;75.06
68274;SHT30;55104;47.356;19.448;2023-03-07T18:01:46;5.73;75.32
68274;SHT30;55104;47.356;19.448;2023-03-07T18:04:48;5.67;75.35
68274;SHT30;55104;47.356;19.448;2023-03-07T18:07:52;5.57;75.79
68274;SHT30;55104;47.356;19.448;2023-03-07T18:11:08;5.47;76.36
68274;SHT30;55104;47.356;19.448;2023-03-07T18:14:11;5.42;76.51
68274;SHT30;55104;47.356;19.448;2023-03-07T18:17:13;5.33;76.97
68274;SHT30;55104;47.356;19.448;2023-03-07T18:20:17;5.28;77.19
68274;SHT30;55104;47.356;19.448;2023-03-07T18:23:19;5.22;77.34
68274;SHT30;55104;47.356;19.448;2023-03-07T18:26:21;5.22;77.32
68274;SHT30;55104;47.356;19.448;2023-03-07T18:29:24;5.21;77.53
68274;SHT30;55104;47.356;19.448;2023-03-07T18:32:26;5.29;77.67
68274;SHT30;55104;47.356;19.448;2023-03-07T18:35:30;5.33;77.73
68274;SHT30;55104;47.356;19.448;2023-03-07T18:38:32;5.35;77.82
68274;SHT30;55104;47.356;19.448;2023-03-07T18:41:34;5.33;77.61
68274;SHT30;55104;47.356;19.448;2023-03-07T18:44:40;5.31;77.65
68274;SHT30;55104;47.356;19.448;2023-03-07T18:47:42;5.18;77.82
68274;SHT30;55104;47.356;19.448;2023-03-07T18:50:54;5.14;77.96
68274;SHT30;55104;47.356;19.448;2023-03-07T18:53:59;4.99;78.40
68274;SHT30;55104;47.356;19.448;2023-03-07T18:57:01;4.94;78.92
68274;SHT30;55104;47.356;19.448;2023-03-07T19:00:04;4.94;79.27
68274;SHT30;55104;47.356;19.448;2023-03-07T19:03:06;4.85;79.42
68274;SHT30;55104;47.356;19.448;2023-03-07T19:06:10;4.77;80.07
68274;SHT30;55104;47.356;19.448;2023-03-07T19:09:15;4.70;80.07
68274;SHT30;55104;47.356;19.448;2023-03-07T19:12:18;4.70;80.34
68274;SHT30;55104;47.356;19.448;2023-03-07T19:15:20;4.61;80.45
68274;SHT30;55104;47.356;19.448;2023-03-07T19:18:22;4.60;80.99
68274;SHT30;55104;47.356;19.448;2023-03-07T19:21:26;4.57;81.49
68274;SHT30;55104;47.356;19.448;2023-03-07T19:24:29;4.53;81.93
68274;SHT30;55104;47.356;19.448;2023-03-07T19:27:31;4.49;81.89
68274;SHT30;55104;47.356;19.448;2023-03-07T19:30:33;4.42;82.23
68274;SHT30;55104;47.356;19.448;2023-03-07T19:33:38;4.39;82.50
68274;SHT30;55104;47.356;19.448;2023-03-07T19:36:40;4.39;82.86
68274;SHT30;55104;47.356;19.448;2023-03-07T19:39:42;4.38;82.84
68274;SHT30;55104;47.356;19.448;2023-03-07T19:42:44;4.46;82.93
68274;SHT30;55104;47.356;19.448;2023-03-07T19:45:48;4.52;82.71
68274;SHT30;55104;47.356;19.448;2023-03-07T19:48:51;4.60;82.88
68274;SHT30;55104;47.356;19.448;2023-03-07T19:51:53;4.77;82.81
68274;SHT30;55104;47.356;19.448;2023-03-07T19:54:55;4.85;82.70
68274;SHT30;55104;47.356;19.448;2023-03-07T19:57:57;4.99;82.31
68274;SHT30;55104;47.356;19.448;2023-03-07T20:01:05;5.07;82.06
68274;SHT30;55104;47.356;19.448;2023-03-07T20:04:10;5.15;81.87
68274;SHT30;55104;47.356;19.448;2023-03-07T20:07:12;5.19;81.83
68274;SHT30;55104;47.356;19.448;2023-03-07T20:10:15;5.15;81.69
68274;SHT30;55104;47.356;19.448;2023-03-07T20:13:17;5.12;81.96
68274;SHT30;55104;47.356;19.448;2023-03-07T20:16:19;5.09;82.25
68274;SHT30;55104;47.356;19.448;2023-03-07T20:19:21;5.08;82.29
68274;SHT30;55104;47.356;19.448;2023-03-07T20:22:23;4.95;82.36
68274;SHT30;55104;47.356;19.448;2023-03-07T20:25:28;4.84;82.76
68274;SHT30;55104;47.356;19.448;2023-03-07T20:28:30;4.73;82.86
68274;SHT30;55104;47.356;19.448;2023-03-07T20:31:33;4.52;83.80
68274;SHT30;55104;47.356;19.448;2023-03-07T20:34:37;4.38;83.76
68274;SHT30;55104;47.356;19.448;2023-03-07T20:37:39;4.19;84.88
68274;SHT30;55104;47.356;19.448;2023-03-07T20:40:41;4.06;85.47
68274;SHT30;55104;47.356;19.448;2023-03-07T20:43:43;3.97;85.11
68274;SHT30;55104;47.356;19.448;2023-03-07T20:46:45;3.85;85.55
68274;SHT30;55104;47.356;19.448;2023-03-07T20:49:47;3.77;85.57
68274;SHT30;55104;47.356;19.448;2023-03-07T20:52:49;3.66;85.60
68274;SHT30;55104;47.356;19.448;2023-03-07T20:55:51;3.57;86.00
68274;SHT30;55104;47.356;19.448;2023-03-07T20:58:54;3.56;86.15
68274;SHT30;55104;47.356;19.448;2023-03-07T21:01:57;3.43;85.93
68274;SHT30;55104;47.356;19.448;2023-03-07T21:04:59;3.39;85.80
68274;SHT30;55104;47.356;19.448;2023-03-07T21:08:01;3.39;86.79
68274;SHT30;55104;47.356;19.448;2023-03-07T21:11:11;3.38;86.66
68274;SHT30;55104;47.356;19.448;2023-03-07T21:14:15;3.36;86.79